Terminal Aerodrome Forecast
Issued by NWS Greer, SC

Home | Current Version | Previous Version | Text Only | Print | Product List | Glossary On
Versions: 1 2 3 4 5 6 7 8 9 10 11 12 13 14
000
FTUS42 KGSP 201700
TAFAVL
TAF
KAVL 201731Z 2018/2118 06008KT P6SM FEW250
     FM210100 10004KT P6SM FEW250
     FM210300 04003KT P6SM FEW250
     FM211200 33004KT P6SM FEW240=

USA.gov is the U.S. government's official web portal to all federal, state and local government web resources and services.